sensor_id;sensor_type;location;lat;lon;timestamp;P1;durP1;ratioP1;P2;durP2;ratioP2
13366;SDS011;6752;52.612;13.630;2024-03-02T00:02:32;31.30;;;27.93;;
13366;SDS011;6752;52.612;13.630;2024-03-02T00:07:35;29.40;;;25.17;;
13366;SDS011;6752;52.612;13.630;2024-03-02T00:12:37;31.12;;;27.92;;
13366;SDS011;6752;52.612;13.630;2024-03-02T00:17:39;34.57;;;28.70;;
13366;SDS011;6752;52.612;13.630;2024-03-02T00:22:42;31.70;;;27.03;;
13366;SDS011;6752;52.612;13.630;2024-03-02T00:27:47;30.27;;;25.97;;
13366;SDS011;6752;52.612;13.630;2024-03-02T00:32:50;33.87;;;27.67;;
13366;SDS011;6752;52.612;13.630;2024-03-02T00:37:52;35.15;;;31.55;;
13366;SDS011;6752;52.612;13.630;2024-03-02T00:42:55;31.10;;;27.07;;
13366;SDS011;6752;52.612;13.630;2024-03-02T00:47:57;34.33;;;28.27;;
13366;SDS011;6752;52.612;13.630;2024-03-02T00:53:00;35.97;;;28.77;;
13366;SDS011;6752;52.612;13.630;2024-03-02T00:58:02;35.50;;;28.70;;
13366;SDS011;6752;52.612;13.630;2024-03-02T01:03:04;34.67;;;29.03;;
13366;SDS011;6752;52.612;13.630;2024-03-02T01:08:07;40.50;;;32.10;;
13366;SDS011;6752;52.612;13.630;2024-03-02T01:13:09;37.23;;;30.00;;
13366;SDS011;6752;52.612;13.630;2024-03-02T01:18:14;35.60;;;29.67;;
13366;SDS011;6752;52.612;13.630;2024-03-02T01:23:17;38.20;;;30.60;;
13366;SDS011;6752;52.612;13.630;2024-03-02T01:28:22;45.37;;;36.30;;
13366;SDS011;6752;52.612;13.630;2024-03-02T01:33:24;47.00;;;38.33;;
13366;SDS011;6752;52.612;13.630;2024-03-02T01:38:27;47.70;;;36.53;;
13366;SDS011;6752;52.612;13.630;2024-03-02T01:43:29;48.17;;;39.10;;
13366;SDS011;6752;52.612;13.630;2024-03-02T01:48:32;53.10;;;41.97;;
13366;SDS011;6752;52.612;13.630;2024-03-02T01:53:34;48.07;;;37.97;;
13366;SDS011;6752;52.612;13.630;2024-03-02T01:58:36;46.13;;;41.33;;
13366;SDS011;6752;52.612;13.630;2024-03-02T02:03:39;45.70;;;37.37;;
13366;SDS011;6752;52.612;13.630;2024-03-02T02:08:41;42.77;;;35.67;;
13366;SDS011;6752;52.612;13.630;2024-03-02T02:13:43;45.33;;;37.40;;
13366;SDS011;6752;52.612;13.630;2024-03-02T02:18:46;39.90;;;34.23;;
13366;SDS011;6752;52.612;13.630;2024-03-02T02:23:48;38.17;;;32.57;;
13366;SDS011;6752;52.612;13.630;2024-03-02T02:28:54;38.03;;;33.43;;
13366;SDS011;6752;52.612;13.630;2024-03-02T02:33:56;51.40;;;41.00;;
13366;SDS011;6752;52.612;13.630;2024-03-02T02:38:59;56.37;;;46.67;;
13366;SDS011;6752;52.612;13.630;2024-03-02T02:44:01;55.33;;;43.47;;
13366;SDS011;6752;52.612;13.630;2024-03-02T02:49:03;66.13;;;53.23;;
13366;SDS011;6752;52.612;13.630;2024-03-02T02:54:05;62.15;;;55.42;;
13366;SDS011;6752;52.612;13.630;2024-03-02T02:59:08;63.60;;;51.47;;
13366;SDS011;6752;52.612;13.630;2024-03-02T03:04:10;57.50;;;45.80;;
13366;SDS011;6752;52.612;13.630;2024-03-02T03:09:13;61.70;;;49.53;;
13366;SDS011;6752;52.612;13.630;2024-03-02T03:14:15;65.47;;;49.23;;
13366;SDS011;6752;52.612;13.630;2024-03-02T03:19:23;64.73;;;50.40;;
13366;SDS011;6752;52.612;13.630;2024-03-02T03:24:26;63.67;;;49.50;;
13366;SDS011;6752;52.612;13.630;2024-03-02T03:29:28;58.63;;;47.03;;
13366;SDS011;6752;52.612;13.630;2024-03-02T03:34:33;69.33;;;51.43;;
13366;SDS011;6752;52.612;13.630;2024-03-02T03:39:35;60.50;;;53.90;;
13366;SDS011;6752;52.612;13.630;2024-03-02T03:44:38;50.60;;;43.73;;
13366;SDS011;6752;52.612;13.630;2024-03-02T03:49:40;49.90;;;43.43;;
13366;SDS011;6752;52.612;13.630;2024-03-02T03:54:43;47.03;;;39.87;;
13366;SDS011;6752;52.612;13.630;2024-03-02T03:59:48;53.27;;;43.53;;
13366;SDS011;6752;52.612;13.630;2024-03-02T04:04:52;50.30;;;40.87;;
13366;SDS011;6752;52.612;13.630;2024-03-02T04:09:55;55.83;;;43.97;;
13366;SDS011;6752;52.612;13.630;2024-03-02T04:14:57;52.83;;;43.10;;
13366;SDS011;6752;52.612;13.630;2024-03-02T04:20:00;52.70;;;42.50;;
13366;SDS011;6752;52.612;13.630;2024-03-02T04:25:03;47.27;;;39.70;;
13366;SDS011;6752;52.612;13.630;2024-03-02T04:30:05;55.63;;;43.30;;
13366;SDS011;6752;52.612;13.630;2024-03-02T04:35:08;46.43;;;39.07;;
13366;SDS011;6752;52.612;13.630;2024-03-02T04:40:11;55.53;;;43.90;;
13366;SDS011;6752;52.612;13.630;2024-03-02T04:45:13;47.53;;;40.00;;
13366;SDS011;6752;52.612;13.630;2024-03-02T04:50:16;50.30;;;42.83;;
13366;SDS011;6752;52.612;13.630;2024-03-02T04:55:18;43.73;;;38.10;;
13366;SDS011;6752;52.612;13.630;2024-03-02T05:00:21;49.10;;;41.43;;
13366;SDS011;6752;52.612;13.630;2024-03-02T05:05:23;47.53;;;42.62;;
13366;SDS011;6752;52.612;13.630;2024-03-02T05:10:25;50.65;;;45.45;;
13366;SDS011;6752;52.612;13.630;2024-03-02T05:15:28;40.53;;;35.77;;
13366;SDS011;6752;52.612;13.630;2024-03-02T05:20:30;44.10;;;37.00;;
13366;SDS011;6752;52.612;13.630;2024-03-02T05:25:32;49.00;;;40.77;;
13366;SDS011;6752;52.612;13.630;2024-03-02T05:30:35;50.67;;;45.47;;
13366;SDS011;6752;52.612;13.630;2024-03-02T05:35:38;38.20;;;33.80;;
13366;SDS011;6752;52.612;13.630;2024-03-02T05:40:44;47.77;;;38.43;;
13366;SDS011;6752;52.612;13.630;2024-03-02T05:45:46;38.50;;;34.13;;
13366;SDS011;6752;52.612;13.630;2024-03-02T05:50:52;44.40;;;38.73;;
13366;SDS011;6752;52.612;13.630;2024-03-02T05:55:54;55.17;;;45.03;;
13366;SDS011;6752;52.612;13.630;2024-03-02T06:00:56;43.10;;;35.40;;
13366;SDS011;6752;52.612;13.630;2024-03-02T06:05:59;52.58;;;46.97;;
13366;SDS011;6752;52.612;13.630;2024-03-02T06:11:02;36.87;;;32.90;;
13366;SDS011;6752;52.612;13.630;2024-03-02T06:16:05;49.97;;;40.80;;
13366;SDS011;6752;52.612;13.630;2024-03-02T06:21:07;62.67;;;48.67;;
13366;SDS011;6752;52.612;13.630;2024-03-02T06:26:09;52.97;;;47.25;;
13366;SDS011;6752;52.612;13.630;2024-03-02T06:31:13;47.23;;;39.13;;
13366;SDS011;6752;52.612;13.630;2024-03-02T06:36:15;52.83;;;42.73;;
13366;SDS011;6752;52.612;13.630;2024-03-02T06:41:18;40.43;;;36.03;;
13366;SDS011;6752;52.612;13.630;2024-03-02T06:46:20;56.77;;;43.17;;
13366;SDS011;6752;52.612;13.630;2024-03-02T06:51:22;64.33;;;48.57;;
13366;SDS011;6752;52.612;13.630;2024-03-02T06:56:25;59.63;;;45.90;;
13366;SDS011;6752;52.612;13.630;2024-03-02T07:01:27;57.67;;;45.63;;
13366;SDS011;6752;52.612;13.630;2024-03-02T07:06:39;50.40;;;45.10;;
13366;SDS011;6752;52.612;13.630;2024-03-02T07:11:41;48.67;;;41.07;;
13366;SDS011;6752;52.612;13.630;2024-03-02T07:16:44;51.77;;;41.40;;
13366;SDS011;6752;52.612;13.630;2024-03-02T07:21:46;59.83;;;45.80;;
13366;SDS011;6752;52.612;13.630;2024-03-02T07:26:48;61.83;;;46.37;;
13366;SDS011;6752;52.612;13.630;2024-03-02T07:31:51;54.55;;;48.63;;
13366;SDS011;6752;52.612;13.630;2024-03-02T07:36:53;55.90;;;42.63;;
13366;SDS011;6752;52.612;13.630;2024-03-02T07:41:55;54.07;;;43.23;;
13366;SDS011;6752;52.612;13.630;2024-03-02T07:46:58;49.13;;;40.77;;
13366;SDS011;6752;52.612;13.630;2024-03-02T07:52:00;46.27;;;38.73;;
13366;SDS011;6752;52.612;13.630;2024-03-02T07:57:02;55.97;;;42.07;;
13366;SDS011;6752;52.612;13.630;2024-03-02T08:02:05;49.05;;;43.83;;
13366;SDS011;6752;52.612;13.630;2024-03-02T08:07:07;42.60;;;37.13;;
13366;SDS011;6752;52.612;13.630;2024-03-02T08:12:10;55.10;;;41.50;;
13366;SDS011;6752;52.612;13.630;2024-03-02T08:17:12;49.40;;;40.10;;
13366;SDS011;6752;52.612;13.630;2024-03-02T08:22:15;49.03;;;41.83;;
13366;SDS011;6752;52.612;13.630;2024-03-02T08:27:20;51.77;;;40.43;;
13366;SDS011;6752;52.612;13.630;2024-03-02T08:32:22;52.13;;;41.80;;
13366;SDS011;6752;52.612;13.630;2024-03-02T08:37:25;51.17;;;42.10;;
13366;SDS011;6752;52.612;13.630;2024-03-02T08:42:27;49.13;;;43.97;;
13366;SDS011;6752;52.612;13.630;2024-03-02T08:47:29;54.43;;;43.93;;
13366;SDS011;6752;52.612;13.630;2024-03-02T08:52:32;54.47;;;44.40;;
13366;SDS011;6752;52.612;13.630;2024-03-02T08:57:34;53.03;;;42.33;;
13366;SDS011;6752;52.612;13.630;2024-03-02T09:02:37;50.80;;;41.10;;
13366;SDS011;6752;52.612;13.630;2024-03-02T09:07:39;49.17;;;43.97;;
13366;SDS011;6752;52.612;13.630;2024-03-02T09:12:41;49.90;;;40.57;;
13366;SDS011;6752;52.612;13.630;2024-03-02T09:17:44;49.53;;;40.57;;
13366;SDS011;6752;52.612;13.630;2024-03-02T09:22:46;53.77;;;42.70;;
13366;SDS011;6752;52.612;13.630;2024-03-02T09:27:48;52.53;;;42.40;;
13366;SDS011;6752;52.612;13.630;2024-03-02T09:32:51;51.60;;;41.43;;
13366;SDS011;6752;52.612;13.630;2024-03-02T09:37:53;45.23;;;39.07;;
13366;SDS011;6752;52.612;13.630;2024-03-02T09:42:56;46.83;;;42.03;;
13366;SDS011;6752;52.612;13.630;2024-03-02T09:47:58;42.97;;;38.67;;
13366;SDS011;6752;52.612;13.630;2024-03-02T09:53:00;42.17;;;37.83;;
13366;SDS011;6752;52.612;13.630;2024-03-02T09:58:03;38.67;;;34.13;;
13366;SDS011;6752;52.612;13.630;2024-03-02T10:03:05;39.83;;;32.43;;
13366;SDS011;6752;52.612;13.630;2024-03-02T10:08:07;37.67;;;32.33;;
13366;SDS011;6752;52.612;13.630;2024-03-02T10:13:10;45.23;;;35.83;;
13366;SDS011;6752;52.612;13.630;2024-03-02T10:18:12;36.90;;;29.90;;
13366;SDS011;6752;52.612;13.630;2024-03-02T10:23:15;37.20;;;30.80;;
13366;SDS011;6752;52.612;13.630;2024-03-02T10:28:17;36.90;;;30.70;;
13366;SDS011;6752;52.612;13.630;2024-03-02T10:33:19;34.30;;;29.23;;
13366;SDS011;6752;52.612;13.630;2024-03-02T10:38:22;36.67;;;30.40;;
13366;SDS011;6752;52.612;13.630;2024-03-02T10:43:24;33.63;;;28.50;;
13366;SDS011;6752;52.612;13.630;2024-03-02T10:48:26;34.73;;;29.40;;
13366;SDS011;6752;52.612;13.630;2024-03-02T10:53:29;34.17;;;28.10;;
13366;SDS011;6752;52.612;13.630;2024-03-02T10:58:31;29.47;;;25.97;;
13366;SDS011;6752;52.612;13.630;2024-03-02T11:03:35;28.97;;;25.87;;
13366;SDS011;6752;52.612;13.630;2024-03-02T11:08:36;29.57;;;25.23;;
13366;SDS011;6752;52.612;13.630;2024-03-02T11:13:38;30.53;;;26.57;;
13366;SDS011;6752;52.612;13.630;2024-03-02T11:18:41;28.17;;;25.10;;
13366;SDS011;6752;52.612;13.630;2024-03-02T11:23:43;25.57;;;22.77;;
13366;SDS011;6752;52.612;13.630;2024-03-02T11:28:45;24.00;;;21.07;;
13366;SDS011;6752;52.612;13.630;2024-03-02T11:33:48;22.77;;;20.33;;
13366;SDS011;6752;52.612;13.630;2024-03-02T11:38:50;23.23;;;19.97;;
13366;SDS011;6752;52.612;13.630;2024-03-02T11:43:52;23.67;;;20.70;;
13366;SDS011;6752;52.612;13.630;2024-03-02T11:48:55;22.73;;;19.90;;
13366;SDS011;6752;52.612;13.630;2024-03-02T11:53:57;23.47;;;20.63;;
13366;SDS011;6752;52.612;13.630;2024-03-02T11:59:00;22.93;;;19.17;;
13366;SDS011;6752;52.612;13.630;2024-03-02T12:04:02;21.40;;;18.73;;
13366;SDS011;6752;52.612;13.630;2024-03-02T12:09:04;23.10;;;20.40;;
13366;SDS011;6752;52.612;13.630;2024-03-02T12:14:11;21.80;;;19.33;;
13366;SDS011;6752;52.612;13.630;2024-03-02T12:19:15;22.43;;;19.50;;
13366;SDS011;6752;52.612;13.630;2024-03-02T12:24:18;23.23;;;20.67;;
13366;SDS011;6752;52.612;13.630;2024-03-02T12:29:20;22.50;;;20.00;;
13366;SDS011;6752;52.612;13.630;2024-03-02T12:34:22;19.83;;;17.40;;
13366;SDS011;6752;52.612;13.630;2024-03-02T12:39:25;21.77;;;18.67;;
13366;SDS011;6752;52.612;13.630;2024-03-02T12:44:27;21.77;;;19.17;;
13366;SDS011;6752;52.612;13.630;2024-03-02T12:49:29;26.63;;;23.80;;
13366;SDS011;6752;52.612;13.630;2024-03-02T12:54:32;54.47;;;35.10;;
13366;SDS011;6752;52.612;13.630;2024-03-02T12:59:34;20.73;;;18.53;;
13366;SDS011;6752;52.612;13.630;2024-03-02T13:04:36;19.90;;;17.30;;
13366;SDS011;6752;52.612;13.630;2024-03-02T13:09:39;17.87;;;15.97;;
13366;SDS011;6752;52.612;13.630;2024-03-02T13:14:41;18.37;;;15.73;;
13366;SDS011;6752;52.612;13.630;2024-03-02T13:19:53;20.03;;;17.13;;
13366;SDS011;6752;52.612;13.630;2024-03-02T13:24:55;16.80;;;15.00;;
13366;SDS011;6752;52.612;13.630;2024-03-02T13:29:57;18.17;;;16.13;;
13366;SDS011;6752;52.612;13.630;2024-03-02T13:34:59;18.03;;;14.93;;
13366;SDS011;6752;52.612;13.630;2024-03-02T13:40:02;16.90;;;15.07;;
13366;SDS011;6752;52.612;13.630;2024-03-02T13:45:04;18.03;;;16.10;;
13366;SDS011;6752;52.612;13.630;2024-03-02T13:50:06;15.90;;;13.50;;
13366;SDS011;6752;52.612;13.630;2024-03-02T13:55:09;17.73;;;15.77;;
13366;SDS011;6752;52.612;13.630;2024-03-02T14:00:12;19.07;;;16.13;;
13366;SDS011;6752;52.612;13.630;2024-03-02T14:05:14;17.73;;;15.47;;
13366;SDS011;6752;52.612;13.630;2024-03-02T14:10:17;18.53;;;15.23;;
13366;SDS011;6752;52.612;13.630;2024-03-02T14:15:19;17.70;;;15.10;;
13366;SDS011;6752;52.612;13.630;2024-03-02T14:20:21;25.60;;;21.07;;
13366;SDS011;6752;52.612;13.630;2024-03-02T14:25:24;26.60;;;22.03;;
13366;SDS011;6752;52.612;13.630;2024-03-02T14:30:26;18.33;;;16.43;;
13366;SDS011;6752;52.612;13.630;2024-03-02T14:35:28;17.60;;;15.60;;
13366;SDS011;6752;52.612;13.630;2024-03-02T14:40:31;18.90;;;16.93;;
13366;SDS011;6752;52.612;13.630;2024-03-02T14:45:33;17.93;;;15.53;;
13366;SDS011;6752;52.612;13.630;2024-03-02T14:50:36;19.67;;;17.57;;
13366;SDS011;6752;52.612;13.630;2024-03-02T14:55:38;18.30;;;16.17;;
13366;SDS011;6752;52.612;13.630;2024-03-02T15:00:40;19.33;;;17.03;;
13366;SDS011;6752;52.612;13.630;2024-03-02T15:05:43;18.97;;;16.97;;
13366;SDS011;6752;52.612;13.630;2024-03-02T15:10:45;19.00;;;16.60;;
13366;SDS011;6752;52.612;13.630;2024-03-02T15:15:47;19.57;;;17.47;;
13366;SDS011;6752;52.612;13.630;2024-03-02T15:20:50;19.10;;;17.00;;
13366;SDS011;6752;52.612;13.630;2024-03-02T15:25:52;19.20;;;16.90;;
13366;SDS011;6752;52.612;13.630;2024-03-02T15:30:55;20.47;;;17.57;;
13366;SDS011;6752;52.612;13.630;2024-03-02T15:36:00;18.33;;;16.40;;
13366;SDS011;6752;52.612;13.630;2024-03-02T15:41:03;18.00;;;15.17;;
13366;SDS011;6752;52.612;13.630;2024-03-02T15:46:07;20.30;;;17.03;;
13366;SDS011;6752;52.612;13.630;2024-03-02T15:51:10;16.93;;;15.13;;
13366;SDS011;6752;52.612;13.630;2024-03-02T15:56:12;17.47;;;15.57;;
13366;SDS011;6752;52.612;13.630;2024-03-02T16:01:14;17.37;;;15.47;;
13366;SDS011;6752;52.612;13.630;2024-03-02T16:06:17;17.17;;;14.57;;
13366;SDS011;6752;52.612;13.630;2024-03-02T16:11:19;16.60;;;14.20;;
13366;SDS011;6752;52.612;13.630;2024-03-02T16:16:22;15.60;;;13.07;;
13366;SDS011;6752;52.612;13.630;2024-03-02T16:21:24;14.70;;;13.13;;
13366;SDS011;6752;52.612;13.630;2024-03-02T16:26:26;15.67;;;13.80;;
13366;SDS011;6752;52.612;13.630;2024-03-02T16:31:29;16.03;;;13.87;;
13366;SDS011;6752;52.612;13.630;2024-03-02T16:36:31;16.33;;;13.70;;
13366;SDS011;6752;52.612;13.630;2024-03-02T16:41:33;18.10;;;15.03;;
13366;SDS011;6752;52.612;13.630;2024-03-02T16:46:36;18.90;;;15.20;;
13366;SDS011;6752;52.612;13.630;2024-03-02T16:51:39;18.97;;;15.13;;
13366;SDS011;6752;52.612;13.630;2024-03-02T16:56:41;17.70;;;15.30;;
13366;SDS011;6752;52.612;13.630;2024-03-02T17:01:49;18.83;;;16.07;;
13366;SDS011;6752;52.612;13.630;2024-03-02T17:06:52;22.00;;;19.70;;
13366;SDS011;6752;52.612;13.630;2024-03-02T17:11:54;21.60;;;18.83;;
13366;SDS011;6752;52.612;13.630;2024-03-02T17:16:56;22.07;;;19.13;;
13366;SDS011;6752;52.612;13.630;2024-03-02T17:21:59;19.13;;;16.33;;
13366;SDS011;6752;52.612;13.630;2024-03-02T17:27:01;20.20;;;16.70;;
13366;SDS011;6752;52.612;13.630;2024-03-02T17:32:03;17.90;;;15.53;;
13366;SDS011;6752;52.612;13.630;2024-03-02T17:37:06;16.13;;;14.07;;
13366;SDS011;6752;52.612;13.630;2024-03-02T17:42:08;19.73;;;15.33;;
13366;SDS011;6752;52.612;13.630;2024-03-02T17:47:10;17.70;;;14.77;;
13366;SDS011;6752;52.612;13.630;2024-03-02T17:52:13;18.90;;;16.23;;
13366;SDS011;6752;52.612;13.630;2024-03-02T17:57:15;18.63;;;15.80;;
13366;SDS011;6752;52.612;13.630;2024-03-02T18:02:18;18.87;;;16.10;;
13366;SDS011;6752;52.612;13.630;2024-03-02T18:07:20;18.87;;;16.47;;
13366;SDS011;6752;52.612;13.630;2024-03-02T18:12:22;18.60;;;15.67;;
13366;SDS011;6752;52.612;13.630;2024-03-02T18:17:27;19.90;;;17.47;;
13366;SDS011;6752;52.612;13.630;2024-03-02T18:22:30;20.37;;;16.63;;
13366;SDS011;6752;52.612;13.630;2024-03-02T18:27:32;19.07;;;15.53;;
13366;SDS011;6752;52.612;13.630;2024-03-02T18:32:34;22.60;;;18.23;;
13366;SDS011;6752;52.612;13.630;2024-03-02T18:37:37;20.63;;;17.47;;
13366;SDS011;6752;52.612;13.630;2024-03-02T18:42:39;21.83;;;18.23;;
13366;SDS011;6752;52.612;13.630;2024-03-02T18:47:43;18.83;;;16.43;;
13366;SDS011;6752;52.612;13.630;2024-03-02T18:52:44;19.93;;;17.27;;
13366;SDS011;6752;52.612;13.630;2024-03-02T18:57:46;21.97;;;18.90;;
13366;SDS011;6752;52.612;13.630;2024-03-02T19:02:48;21.07;;;19.10;;
13366;SDS011;6752;52.612;13.630;2024-03-02T19:07:51;28.23;;;25.63;;
13366;SDS011;6752;52.612;13.630;2024-03-02T19:12:53;19.67;;;17.57;;
13366;SDS011;6752;52.612;13.630;2024-03-02T19:17:56;20.07;;;17.17;;
13366;SDS011;6752;52.612;13.630;2024-03-02T19:22:58;20.23;;;18.23;;
13366;SDS011;6752;52.612;13.630;2024-03-02T19:28:00;19.50;;;17.40;;
13366;SDS011;6752;52.612;13.630;2024-03-02T19:33:03;24.37;;;20.40;;
13366;SDS011;6752;52.612;13.630;2024-03-02T19:38:05;22.90;;;19.77;;
13366;SDS011;6752;52.612;13.630;2024-03-02T19:43:07;21.40;;;19.10;;
13366;SDS011;6752;52.612;13.630;2024-03-02T19:48:10;22.23;;;19.80;;
13366;SDS011;6752;52.612;13.630;2024-03-02T19:53:12;22.40;;;19.60;;
13366;SDS011;6752;52.612;13.630;2024-03-02T19:58:15;28.53;;;25.13;;
13366;SDS011;6752;52.612;13.630;2024-03-02T20:03:17;28.70;;;25.10;;
13366;SDS011;6752;52.612;13.630;2024-03-02T20:08:19;23.20;;;20.30;;
13366;SDS011;6752;52.612;13.630;2024-03-02T20:13:22;23.20;;;20.63;;
13366;SDS011;6752;52.612;13.630;2024-03-02T20:18:24;24.90;;;21.87;;
13366;SDS011;6752;52.612;13.630;2024-03-02T20:23:26;22.90;;;20.40;;
13366;SDS011;6752;52.612;13.630;2024-03-02T20:28:29;23.53;;;21.00;;
13366;SDS011;6752;52.612;13.630;2024-03-02T20:33:31;25.47;;;20.87;;
13366;SDS011;6752;52.612;13.630;2024-03-02T20:38:34;31.20;;;27.93;;
13366;SDS011;6752;52.612;13.630;2024-03-02T20:43:36;29.40;;;26.45;;
13366;SDS011;6752;52.612;13.630;2024-03-02T20:48:38;29.60;;;26.10;;
13366;SDS011;6752;52.612;13.630;2024-03-02T20:53:41;30.90;;;27.80;;
13366;SDS011;6752;52.612;13.630;2024-03-02T20:58:43;35.07;;;30.00;;
13366;SDS011;6752;52.612;13.630;2024-03-02T21:03:45;33.73;;;29.30;;
13366;SDS011;6752;52.612;13.630;2024-03-02T21:08:48;33.47;;;30.07;;
13366;SDS011;6752;52.612;13.630;2024-03-02T21:13:50;31.03;;;26.93;;
13366;SDS011;6752;52.612;13.630;2024-03-02T21:18:52;28.30;;;25.00;;
13366;SDS011;6752;52.612;13.630;2024-03-02T21:23:55;33.20;;;28.57;;
13366;SDS011;6752;52.612;13.630;2024-03-02T21:28:57;33.50;;;27.80;;
13366;SDS011;6752;52.612;13.630;2024-03-02T21:34:00;30.90;;;26.00;;
13366;SDS011;6752;52.612;13.630;2024-03-02T21:39:02;29.63;;;26.30;;
13366;SDS011;6752;52.612;13.630;2024-03-02T21:44:04;32.17;;;27.37;;
13366;SDS011;6752;52.612;13.630;2024-03-02T21:49:07;30.23;;;25.27;;
13366;SDS011;6752;52.612;13.630;2024-03-02T21:54:09;31.30;;;25.90;;
13366;SDS011;6752;52.612;13.630;2024-03-02T21:59:11;32.37;;;25.87;;
13366;SDS011;6752;52.612;13.630;2024-03-02T22:04:14;30.70;;;24.43;;
13366;SDS011;6752;52.612;13.630;2024-03-02T22:09:16;28.10;;;25.12;;
13366;SDS011;6752;52.612;13.630;2024-03-02T22:14:19;26.00;;;22.47;;
13366;SDS011;6752;52.612;13.630;2024-03-02T22:19:21;27.87;;;22.30;;
13366;SDS011;6752;52.612;13.630;2024-03-02T22:24:23;29.47;;;24.50;;
13366;SDS011;6752;52.612;13.630;2024-03-02T22:29:26;29.80;;;24.43;;
13366;SDS011;6752;52.612;13.630;2024-03-02T22:34:28;34.00;;;26.77;;
13366;SDS011;6752;52.612;13.630;2024-03-02T22:39:30;35.28;;;31.58;;
13366;SDS011;6752;52.612;13.630;2024-03-02T22:44:33;37.80;;;30.57;;
13366;SDS011;6752;52.612;13.630;2024-03-02T22:49:35;40.37;;;32.30;;
13366;SDS011;6752;52.612;13.630;2024-03-02T22:54:38;31.23;;;24.77;;
13366;SDS011;6752;52.612;13.630;2024-03-02T22:59:40;37.17;;;29.50;;
13366;SDS011;6752;52.612;13.630;2024-03-02T23:04:46;36.43;;;29.47;;
13366;SDS011;6752;52.612;13.630;2024-03-02T23:09:45;38.58;;;34.50;;
13366;SDS011;6752;52.612;13.630;2024-03-02T23:14:47;43.35;;;38.85;;
13366;SDS011;6752;52.612;13.630;2024-03-02T23:19:49;41.30;;;35.73;;
13366;SDS011;6752;52.612;13.630;2024-03-02T23:24:52;49.50;;;39.97;;
13366;SDS011;6752;52.612;13.630;2024-03-02T23:29:54;48.30;;;39.67;;
13366;SDS011;6752;52.612;13.630;2024-03-02T23:34:57;51.03;;;41.37;;
13366;SDS011;6752;52.612;13.630;2024-03-02T23:39:59;49.70;;;40.47;;
13366;SDS011;6752;52.612;13.630;2024-03-02T23:45:04;56.37;;;43.37;;
13366;SDS011;6752;52.612;13.630;2024-03-02T23:50:06;56.53;;;44.00;;
13366;SDS011;6752;52.612;13.630;2024-03-02T23:55:09;57.10;;;44.80;;
